sensor_id;sensor_type;location;lat;lon;timestamp;temperature;humidity
7204;DHT22;3643;52.460;13.322;2024-03-23T00:52:34;7.30;99.90
7204;DHT22;3643;52.460;13.322;2024-03-23T00:55:01;7.30;99.90
7204;DHT22;3643;52.460;13.322;2024-03-23T00:57:27;7.30;99.90
7204;DHT22;3643;52.460;13.322;2024-03-23T00:59:54;7.30;99.90
7204;DHT22;3643;52.460;13.322;2024-03-23T01:02:20;7.30;99.90
7204;DHT22;3643;52.460;13.322;2024-03-23T01:04:48;7.30;99.90
7204;DHT22;3643;52.460;13.322;2024-03-23T01:07:14;7.30;99.90
7204;DHT22;3643;52.460;13.322;2024-03-23T01:09:42;7.20;99.90
7204;DHT22;3643;52.460;13.322;2024-03-23T01:12:08;7.30;99.90
7204;DHT22;3643;52.460;13.322;2024-03-23T01:14:35;7.30;99.90
7204;DHT22;3643;52.460;13.322;2024-03-23T01:17:02;7.30;99.90
7204;DHT22;3643;52.460;13.322;2024-03-23T01:19:29;7.30;99.90
7204;DHT22;3643;52.460;13.322;2024-03-23T01:21:55;7.30;99.90
7204;DHT22;3643;52.460;13.322;2024-03-23T01:24:22;7.30;99.90
7204;DHT22;3643;52.460;13.322;2024-03-23T01:26:50;7.30;99.90
7204;DHT22;3643;52.460;13.322;2024-03-23T01:29:17;7.20;99.90
7204;DHT22;3643;52.460;13.322;2024-03-23T01:31:43;7.20;99.90
7204;DHT22;3643;52.460;13.322;2024-03-23T01:34:11;7.20;99.90
7204;DHT22;3643;52.460;13.322;2024-03-23T01:36:38;7.20;99.90
7204;DHT22;3643;52.460;13.322;2024-03-23T01:39:05;7.20;99.90
7204;DHT22;3643;52.460;13.322;2024-03-23T01:41:35;7.20;99.90
7204;DHT22;3643;52.460;13.322;2024-03-23T01:44:05;7.20;99.90
7204;DHT22;3643;52.460;13.322;2024-03-23T01:46:32;7.20;99.90
7204;DHT22;3643;52.460;13.322;2024-03-23T01:48:59;7.20;99.90
7204;DHT22;3643;52.460;13.322;2024-03-23T01:51:26;7.10;99.90
7204;DHT22;3643;52.460;13.322;2024-03-23T01:53:54;7.20;99.90
7204;DHT22;3643;52.460;13.322;2024-03-23T01:56:22;7.20;99.90
7204;DHT22;3643;52.460;13.322;2024-03-23T01:58:49;7.20;99.90
7204;DHT22;3643;52.460;13.322;2024-03-23T02:01:17;7.20;99.90
7204;DHT22;3643;52.460;13.322;2024-03-23T02:03:45;7.10;99.90
7204;DHT22;3643;52.460;13.322;2024-03-23T02:06:11;7.10;99.90
7204;DHT22;3643;52.460;13.322;2024-03-23T02:08:39;7.10;99.90
7204;DHT22;3643;52.460;13.322;2024-03-23T02:11:05;7.20;99.90
7204;DHT22;3643;52.460;13.322;2024-03-23T02:13:33;7.20;99.90
7204;DHT22;3643;52.460;13.322;2024-03-23T02:15:59;7.20;99.90
7204;DHT22;3643;52.460;13.322;2024-03-23T02:18:28;7.20;99.90
7204;DHT22;3643;52.460;13.322;2024-03-23T02:20:54;7.20;99.90
7204;DHT22;3643;52.460;13.322;2024-03-23T02:23:22;7.20;99.90
7204;DHT22;3643;52.460;13.322;2024-03-23T02:25:54;7.20;99.90
7204;DHT22;3643;52.460;13.322;2024-03-23T02:28:22;7.30;99.90
7204;DHT22;3643;52.460;13.322;2024-03-23T02:30:48;7.30;99.90
7204;DHT22;3643;52.460;13.322;2024-03-23T02:33:16;7.20;99.90
7204;DHT22;3643;52.460;13.322;2024-03-23T02:35:42;7.20;99.90
7204;DHT22;3643;52.460;13.322;2024-03-23T02:38:10;7.20;99.90
7204;DHT22;3643;52.460;13.322;2024-03-23T02:40:37;7.20;99.90
7204;DHT22;3643;52.460;13.322;2024-03-23T02:43:04;7.20;99.90
7204;DHT22;3643;52.460;13.322;2024-03-23T02:45:31;6.90;99.90
7204;DHT22;3643;52.460;13.322;2024-03-23T02:47:58;7.20;99.90
7204;DHT22;3643;52.460;13.322;2024-03-23T02:50:24;7.20;99.90
7204;DHT22;3643;52.460;13.322;2024-03-23T02:52:51;7.20;99.90
7204;DHT22;3643;52.460;13.322;2024-03-23T02:55:18;7.20;99.90
7204;DHT22;3643;52.460;13.322;2024-03-23T02:57:46;7.20;99.90
7204;DHT22;3643;52.460;13.322;2024-03-23T03:00:13;7.20;99.90
7204;DHT22;3643;52.460;13.322;2024-03-23T03:02:40;6.30;99.90
7204;DHT22;3643;52.460;13.322;2024-03-23T03:05:06;7.20;99.90
7204;DHT22;3643;52.460;13.322;2024-03-23T03:07:34;7.20;99.90
7204;DHT22;3643;52.460;13.322;2024-03-23T03:10:01;7.20;99.90
7204;DHT22;3643;52.460;13.322;2024-03-23T03:12:28;7.20;99.90
7204;DHT22;3643;52.460;13.322;2024-03-23T03:14:55;7.20;99.90
7204;DHT22;3643;52.460;13.322;2024-03-23T03:17:22;7.20;99.90
7204;DHT22;3643;52.460;13.322;2024-03-23T03:19:49;7.20;99.90
7204;DHT22;3643;52.460;13.322;2024-03-23T03:22:21;7.20;99.90
7204;DHT22;3643;52.460;13.322;2024-03-23T03:24:47;7.20;99.90
7204;DHT22;3643;52.460;13.322;2024-03-23T03:27:14;7.20;99.90
7204;DHT22;3643;52.460;13.322;2024-03-23T03:29:41;7.10;99.90
7204;DHT22;3643;52.460;13.322;2024-03-23T03:32:09;7.10;99.90
7204;DHT22;3643;52.460;13.322;2024-03-23T03:34:35;7.00;99.90
7204;DHT22;3643;52.460;13.322;2024-03-23T03:37:03;7.00;99.90
7204;DHT22;3643;52.460;13.322;2024-03-23T03:39:30;7.00;99.90
7204;DHT22;3643;52.460;13.322;2024-03-23T03:41:57;7.00;99.90
7204;DHT22;3643;52.460;13.322;2024-03-23T03:44:23;7.00;99.90
7204;DHT22;3643;52.460;13.322;2024-03-23T03:46:51;6.90;99.90
7204;DHT22;3643;52.460;13.322;2024-03-23T03:49:18;6.80;99.90
7204;DHT22;3643;52.460;13.322;2024-03-23T03:51:45;6.80;99.90
7204;DHT22;3643;52.460;13.322;2024-03-23T03:54:12;6.80;99.90
7204;DHT22;3643;52.460;13.322;2024-03-23T03:56:39;6.80;99.90
7204;DHT22;3643;52.460;13.322;2024-03-23T03:59:05;6.80;99.90
7204;DHT22;3643;52.460;13.322;2024-03-23T04:01:32;6.80;99.90
7204;DHT22;3643;52.460;13.322;2024-03-23T04:03:59;6.80;99.90
7204;DHT22;3643;52.460;13.322;2024-03-23T04:06:27;6.70;99.90
7204;DHT22;3643;52.460;13.322;2024-03-23T04:08:54;6.60;99.90
7204;DHT22;3643;52.460;13.322;2024-03-23T04:11:21;6.40;99.90
7204;DHT22;3643;52.460;13.322;2024-03-23T04:13:47;6.60;99.90
7204;DHT22;3643;52.460;13.322;2024-03-23T04:16:26;6.50;99.90
7204;DHT22;3643;52.460;13.322;2024-03-23T04:18:52;6.50;99.90
7204;DHT22;3643;52.460;13.322;2024-03-23T04:21:19;6.50;99.90
7204;DHT22;3643;52.460;13.322;2024-03-23T04:23:47;6.50;99.90
7204;DHT22;3643;52.460;13.322;2024-03-23T04:26:15;6.50;99.90
7204;DHT22;3643;52.460;13.322;2024-03-23T04:28:41;6.50;99.90
7204;DHT22;3643;52.460;13.322;2024-03-23T04:31:09;6.50;99.90
7204;DHT22;3643;52.460;13.322;2024-03-23T04:33:35;6.50;99.90
7204;DHT22;3643;52.460;13.322;2024-03-23T04:36:03;6.40;99.90
7204;DHT22;3643;52.460;13.322;2024-03-23T04:38:29;6.40;99.90
7204;DHT22;3643;52.460;13.322;2024-03-23T04:40:58;6.40;99.90
7204;DHT22;3643;52.460;13.322;2024-03-23T04:43:26;6.40;99.90
7204;DHT22;3643;52.460;13.322;2024-03-23T04:45:54;6.30;99.90
7204;DHT22;3643;52.460;13.322;2024-03-23T04:48:21;6.30;99.90
7204;DHT22;3643;52.460;13.322;2024-03-23T04:50:49;6.30;99.90
7204;DHT22;3643;52.460;13.322;2024-03-23T04:53:16;6.30;99.90
7204;DHT22;3643;52.460;13.322;2024-03-23T04:55:43;6.30;99.90
7204;DHT22;3643;52.460;13.322;2024-03-23T04:58:12;6.30;99.90
7204;DHT22;3643;52.460;13.322;2024-03-23T05:00:38;6.20;99.90
7204;DHT22;3643;52.460;13.322;2024-03-23T05:03:06;6.20;99.90
7204;DHT22;3643;52.460;13.322;2024-03-23T05:05:33;6.20;99.90
7204;DHT22;3643;52.460;13.322;2024-03-23T05:07:59;6.20;99.90
7204;DHT22;3643;52.460;13.322;2024-03-23T05:10:26;6.20;99.90
7204;DHT22;3643;52.460;13.322;2024-03-23T05:12:53;6.20;99.90
7204;DHT22;3643;52.460;13.322;2024-03-23T05:15:21;6.20;99.90
7204;DHT22;3643;52.460;13.322;2024-03-23T05:17:48;6.10;99.90
7204;DHT22;3643;52.460;13.322;2024-03-23T05:20:15;6.10;99.90
7204;DHT22;3643;52.460;13.322;2024-03-23T05:22:42;6.10;99.90
7204;DHT22;3643;52.460;13.322;2024-03-23T05:25:09;6.10;99.90
7204;DHT22;3643;52.460;13.322;2024-03-23T05:27:35;6.20;99.90
7204;DHT22;3643;52.460;13.322;2024-03-23T05:30:03;6.20;99.90
7204;DHT22;3643;52.460;13.322;2024-03-23T05:32:33;6.10;99.90
7204;DHT22;3643;52.460;13.322;2024-03-23T05:35:00;6.10;99.90
7204;DHT22;3643;52.460;13.322;2024-03-23T05:37:27;6.10;99.90
7204;DHT22;3643;52.460;13.322;2024-03-23T05:39:54;6.10;99.90
7204;DHT22;3643;52.460;13.322;2024-03-23T05:42:20;6.00;99.90
7204;DHT22;3643;52.460;13.322;2024-03-23T05:44:47;6.00;99.90
7204;DHT22;3643;52.460;13.322;2024-03-23T05:47:13;6.00;99.90
7204;DHT22;3643;52.460;13.322;2024-03-23T05:49:44;5.90;99.90
7204;DHT22;3643;52.460;13.322;2024-03-23T05:52:12;6.00;99.90
7204;DHT22;3643;52.460;13.322;2024-03-23T05:54:39;6.00;99.90
7204;DHT22;3643;52.460;13.322;2024-03-23T05:57:05;6.10;99.90
7204;DHT22;3643;52.460;13.322;2024-03-23T05:59:33;6.10;99.90
7204;DHT22;3643;52.460;13.322;2024-03-23T06:01:59;6.00;99.90
7204;DHT22;3643;52.460;13.322;2024-03-23T06:04:27;6.10;99.90
7204;DHT22;3643;52.460;13.322;2024-03-23T06:06:54;6.20;99.90
7204;DHT22;3643;52.460;13.322;2024-03-23T06:09:23;6.20;99.90
7204;DHT22;3643;52.460;13.322;2024-03-23T06:11:49;6.20;99.90
7204;DHT22;3643;52.460;13.322;2024-03-23T06:14:17;6.40;99.90
7204;DHT22;3643;52.460;13.322;2024-03-23T06:16:43;6.10;99.90
7204;DHT22;3643;52.460;13.322;2024-03-23T06:19:10;6.20;99.90
7204;DHT22;3643;52.460;13.322;2024-03-23T06:21:36;6.20;99.90
7204;DHT22;3643;52.460;13.322;2024-03-23T06:24:05;6.30;99.90
7204;DHT22;3643;52.460;13.322;2024-03-23T06:26:32;6.20;99.90
7204;DHT22;3643;52.460;13.322;2024-03-23T06:28:59;6.40;99.90
7204;DHT22;3643;52.460;13.322;2024-03-23T06:31:26;6.30;99.90
7204;DHT22;3643;52.460;13.322;2024-03-23T06:33:52;6.30;99.90
7204;DHT22;3643;52.460;13.322;2024-03-23T06:36:21;6.50;99.90
7204;DHT22;3643;52.460;13.322;2024-03-23T06:38:48;6.30;99.90
7204;DHT22;3643;52.460;13.322;2024-03-23T06:41:17;6.30;99.90
7204;DHT22;3643;52.460;13.322;2024-03-23T06:43:43;6.30;99.90
7204;DHT22;3643;52.460;13.322;2024-03-23T06:46:10;6.30;99.90
7204;DHT22;3643;52.460;13.322;2024-03-23T06:48:37;6.20;99.90
7204;DHT22;3643;52.460;13.322;2024-03-23T06:51:04;6.20;99.90
7204;DHT22;3643;52.460;13.322;2024-03-23T06:53:30;6.20;99.90
7204;DHT22;3643;52.460;13.322;2024-03-23T06:55:57;6.20;99.90
7204;DHT22;3643;52.460;13.322;2024-03-23T06:58:25;6.30;99.90
7204;DHT22;3643;52.460;13.322;2024-03-23T07:00:52;6.30;99.90
7204;DHT22;3643;52.460;13.322;2024-03-23T07:03:19;6.20;99.90
7204;DHT22;3643;52.460;13.322;2024-03-23T07:05:47;6.20;99.90
7204;DHT22;3643;52.460;13.322;2024-03-23T07:08:13;6.30;99.90
7204;DHT22;3643;52.460;13.322;2024-03-23T07:10:44;6.30;99.90
7204;DHT22;3643;52.460;13.322;2024-03-23T07:13:10;6.40;99.90
7204;DHT22;3643;52.460;13.322;2024-03-23T07:15:39;6.50;99.90
7204;DHT22;3643;52.460;13.322;2024-03-23T07:18:05;6.40;99.90
7204;DHT22;3643;52.460;13.322;2024-03-23T07:20:32;6.40;99.90
7204;DHT22;3643;52.460;13.322;2024-03-23T07:22:59;6.40;99.90
7204;DHT22;3643;52.460;13.322;2024-03-23T07:25:26;6.40;99.90
7204;DHT22;3643;52.460;13.322;2024-03-23T07:27:54;6.30;99.90
7204;DHT22;3643;52.460;13.322;2024-03-23T07:30:21;6.30;99.90
7204;DHT22;3643;52.460;13.322;2024-03-23T07:32:48;6.30;99.90
7204;DHT22;3643;52.460;13.322;2024-03-23T07:35:16;6.40;99.90
7204;DHT22;3643;52.460;13.322;2024-03-23T07:37:42;6.60;99.90
7204;DHT22;3643;52.460;13.322;2024-03-23T07:40:10;6.50;99.90
7204;DHT22;3643;52.460;13.322;2024-03-23T07:42:37;6.50;99.90
7204;DHT22;3643;52.460;13.322;2024-03-23T07:45:05;6.60;99.90
7204;DHT22;3643;52.460;13.322;2024-03-23T07:47:32;6.60;99.90
7204;DHT22;3643;52.460;13.322;2024-03-23T07:50:01;6.70;99.90
7204;DHT22;3643;52.460;13.322;2024-03-23T07:52:28;6.80;99.90
7204;DHT22;3643;52.460;13.322;2024-03-23T07:54:55;6.40;99.90
7204;DHT22;3643;52.460;13.322;2024-03-23T07:57:22;6.30;99.90
7204;DHT22;3643;52.460;13.322;2024-03-23T07:59:48;6.20;99.90
7204;DHT22;3643;52.460;13.322;2024-03-23T08:02:15;6.10;99.90
7204;DHT22;3643;52.460;13.322;2024-03-23T08:04:41;6.00;99.90
7204;DHT22;3643;52.460;13.322;2024-03-23T08:07:10;6.00;99.90
7204;DHT22;3643;52.460;13.322;2024-03-23T08:09:36;6.00;99.90
7204;DHT22;3643;52.460;13.322;2024-03-23T08:12:03;6.10;99.90
7204;DHT22;3643;52.460;13.322;2024-03-23T08:14:31;6.10;99.90
7204;DHT22;3643;52.460;13.322;2024-03-23T08:16:58;6.10;99.90
7204;DHT22;3643;52.460;13.322;2024-03-23T08:19:24;6.10;99.90
7204;DHT22;3643;52.460;13.322;2024-03-23T08:21:51;6.20;99.90
7204;DHT22;3643;52.460;13.322;2024-03-23T08:24:20;6.20;99.90
7204;DHT22;3643;52.460;13.322;2024-03-23T08:26:47;6.20;99.90
7204;DHT22;3643;52.460;13.322;2024-03-23T08:29:13;6.10;99.90
7204;DHT22;3643;52.460;13.322;2024-03-23T08:31:40;5.90;99.90
7204;DHT22;3643;52.460;13.322;2024-03-23T08:34:06;5.70;99.90
7204;DHT22;3643;52.460;13.322;2024-03-23T08:36:34;5.70;99.90
7204;DHT22;3643;52.460;13.322;2024-03-23T08:39:00;5.60;99.90
7204;DHT22;3643;52.460;13.322;2024-03-23T08:41:29;5.50;99.90
7204;DHT22;3643;52.460;13.322;2024-03-23T08:43:56;5.40;99.90
7204;DHT22;3643;52.460;13.322;2024-03-23T08:46:23;5.40;99.90
7204;DHT22;3643;52.460;13.322;2024-03-23T08:48:52;5.40;99.90
7204;DHT22;3643;52.460;13.322;2024-03-23T08:51:19;5.30;99.90
7204;DHT22;3643;52.460;13.322;2024-03-23T08:53:46;5.20;99.90
7204;DHT22;3643;52.460;13.322;2024-03-23T08:56:13;5.20;99.90
7204;DHT22;3643;52.460;13.322;2024-03-23T08:58:40;5.20;99.90
7204;DHT22;3643;52.460;13.322;2024-03-23T09:01:09;5.10;99.90
7204;DHT22;3643;52.460;13.322;2024-03-23T09:03:35;5.00;99.90
7204;DHT22;3643;52.460;13.322;2024-03-23T09:06:07;4.90;99.90
7204;DHT22;3643;52.460;13.322;2024-03-23T09:08:35;4.90;99.90
7204;DHT22;3643;52.460;13.322;2024-03-23T09:11:04;4.80;99.90
7204;DHT22;3643;52.460;13.322;2024-03-23T09:13:32;4.80;99.90
7204;DHT22;3643;52.460;13.322;2024-03-23T09:16:01;4.70;99.90
7204;DHT22;3643;52.460;13.322;2024-03-23T09:18:27;4.70;99.90
7204;DHT22;3643;52.460;13.322;2024-03-23T09:20:54;4.60;99.90
7204;DHT22;3643;52.460;13.322;2024-03-23T09:23:21;4.60;99.90
7204;DHT22;3643;52.460;13.322;2024-03-23T09:25:48;4.60;99.90
7204;DHT22;3643;52.460;13.322;2024-03-23T09:28:14;4.60;99.90
7204;DHT22;3643;52.460;13.322;2024-03-23T09:30:42;4.50;99.90
7204;DHT22;3643;52.460;13.322;2024-03-23T09:33:10;4.60;99.90
7204;DHT22;3643;52.460;13.322;2024-03-23T09:35:37;4.60;99.90
7204;DHT22;3643;52.460;13.322;2024-03-23T09:38:05;4.50;99.90
7204;DHT22;3643;52.460;13.322;2024-03-23T09:40:33;4.50;99.90
7204;DHT22;3643;52.460;13.322;2024-03-23T09:43:00;4.50;99.90
7204;DHT22;3643;52.460;13.322;2024-03-23T09:45:27;4.40;99.90
7204;DHT22;3643;52.460;13.322;2024-03-23T09:47:55;4.40;99.90
7204;DHT22;3643;52.460;13.322;2024-03-23T09:50:23;4.40;99.90
7204;DHT22;3643;52.460;13.322;2024-03-23T09:52:50;4.30;99.90
7204;DHT22;3643;52.460;13.322;2024-03-23T09:55:17;4.20;99.90
7204;DHT22;3643;52.460;13.322;2024-03-23T09:57:44;4.30;99.90
7204;DHT22;3643;52.460;13.322;2024-03-23T10:00:11;4.30;99.90
7204;DHT22;3643;52.460;13.322;2024-03-23T10:02:39;4.30;99.90
7204;DHT22;3643;52.460;13.322;2024-03-23T10:05:20;4.40;99.90
7204;DHT22;3643;52.460;13.322;2024-03-23T10:07:49;4.50;99.90
7204;DHT22;3643;52.460;13.322;2024-03-23T10:10:16;4.40;99.90
7204;DHT22;3643;52.460;13.322;2024-03-23T10:12:47;4.30;99.90
7204;DHT22;3643;52.460;13.322;2024-03-23T10:15:21;4.30;99.90
7204;DHT22;3643;52.460;13.322;2024-03-23T10:17:49;4.30;99.90
7204;DHT22;3643;52.460;13.322;2024-03-23T10:20:19;4.20;99.90
7204;DHT22;3643;52.460;13.322;2024-03-23T10:22:50;4.30;99.90
7204;DHT22;3643;52.460;13.322;2024-03-23T10:25:17;4.20;99.90
7204;DHT22;3643;52.460;13.322;2024-03-23T10:27:58;4.20;99.90
7204;DHT22;3643;52.460;13.322;2024-03-23T10:30:25;4.30;99.90
7204;DHT22;3643;52.460;13.322;2024-03-23T10:33:07;4.40;99.90
7204;DHT22;3643;52.460;13.322;2024-03-23T10:35:33;4.40;99.90
7204;DHT22;3643;52.460;13.322;2024-03-23T10:38:03;4.50;99.90
7204;DHT22;3643;52.460;13.322;2024-03-23T10:40:30;4.60;99.90
7204;DHT22;3643;52.460;13.322;2024-03-23T10:42:58;4.60;99.90
7204;DHT22;3643;52.460;13.322;2024-03-23T10:45:24;4.60;99.90
7204;DHT22;3643;52.460;13.322;2024-03-23T10:47:52;4.60;99.90
7204;DHT22;3643;52.460;13.322;2024-03-23T10:50:18;4.60;99.90
7204;DHT22;3643;52.460;13.322;2024-03-23T10:52:47;4.70;99.90
7204;DHT22;3643;52.460;13.322;2024-03-23T10:55:17;4.70;99.90
7204;DHT22;3643;52.460;13.322;2024-03-23T10:57:49;4.80;99.90
7204;DHT22;3643;52.460;13.322;2024-03-23T11:00:17;4.80;99.90
7204;DHT22;3643;52.460;13.322;2024-03-23T11:02:47;4.60;99.90
7204;DHT22;3643;52.460;13.322;2024-03-23T11:05:29;4.60;99.90
7204;DHT22;3643;52.460;13.322;2024-03-23T11:07:57;4.80;99.90
7204;DHT22;3643;52.460;13.322;2024-03-23T11:10:29;4.90;99.90
7204;DHT22;3643;52.460;13.322;2024-03-23T11:12:57;5.00;99.90
7204;DHT22;3643;52.460;13.322;2024-03-23T11:15:23;5.00;99.90
7204;DHT22;3643;52.460;13.322;2024-03-23T11:18:04;4.90;99.90
7204;DHT22;3643;52.460;13.322;2024-03-23T11:20:34;5.00;99.90
7204;DHT22;3643;52.460;13.322;2024-03-23T11:23:02;5.10;99.90
7204;DHT22;3643;52.460;13.322;2024-03-23T11:25:30;5.30;99.90
7204;DHT22;3643;52.460;13.322;2024-03-23T11:28:06;5.40;99.90
7204;DHT22;3643;52.460;13.322;2024-03-23T11:30:35;5.40;99.90
7204;DHT22;3643;52.460;13.322;2024-03-23T11:33:04;5.40;99.90
7204;DHT22;3643;52.460;13.322;2024-03-23T11:35:31;5.40;99.90
7204;DHT22;3643;52.460;13.322;2024-03-23T11:38:06;5.40;99.90
7204;DHT22;3643;52.460;13.322;2024-03-23T11:40:35;5.30;99.90
7204;DHT22;3643;52.460;13.322;2024-03-23T11:43:04;5.40;99.90
7204;DHT22;3643;52.460;13.322;2024-03-23T11:45:35;5.50;99.90
7204;DHT22;3643;52.460;13.322;2024-03-23T11:48:06;5.70;99.90
7204;DHT22;3643;52.460;13.322;2024-03-23T11:50:34;5.90;99.90
7204;DHT22;3643;52.460;13.322;2024-03-23T11:53:08;6.00;99.90
7204;DHT22;3643;52.460;13.322;2024-03-23T11:55:57;6.40;99.90
7204;DHT22;3643;52.460;13.322;2024-03-23T11:58:26;6.40;99.90
7204;DHT22;3643;52.460;13.322;2024-03-23T12:00:55;6.30;99.90
7204;DHT22;3643;52.460;13.322;2024-03-23T12:03:23;6.40;99.90
7204;DHT22;3643;52.460;13.322;2024-03-23T12:05:52;6.20;99.90
7204;DHT22;3643;52.460;13.322;2024-03-23T12:08:22;6.00;99.90
7204;DHT22;3643;52.460;13.322;2024-03-23T12:10:51;6.00;99.90
7204;DHT22;3643;52.460;13.322;2024-03-23T12:13:21;6.00;99.90
7204;DHT22;3643;52.460;13.322;2024-03-23T12:15:49;5.90;99.90
7204;DHT22;3643;52.460;13.322;2024-03-23T12:18:17;5.80;99.90
7204;DHT22;3643;52.460;13.322;2024-03-23T12:20:50;6.00;99.90
7204;DHT22;3643;52.460;13.322;2024-03-23T12:23:17;6.10;99.90
7204;DHT22;3643;52.460;13.322;2024-03-23T12:25:43;6.20;99.90
7204;DHT22;3643;52.460;13.322;2024-03-23T12:28:10;6.30;99.90
7204;DHT22;3643;52.460;13.322;2024-03-23T12:30:39;6.60;99.90
7204;DHT22;3643;52.460;13.322;2024-03-23T12:33:07;6.70;99.90
7204;DHT22;3643;52.460;13.322;2024-03-23T12:35:33;6.80;99.90
7204;DHT22;3643;52.460;13.322;2024-03-23T12:38:00;6.40;99.90
7204;DHT22;3643;52.460;13.322;2024-03-23T12:40:27;6.30;99.90
7204;DHT22;3643;52.460;13.322;2024-03-23T12:42:55;6.10;99.90
7204;DHT22;3643;52.460;13.322;2024-03-23T12:45:22;5.50;99.90
7204;DHT22;3643;52.460;13.322;2024-03-23T12:47:50;4.90;99.90
7204;DHT22;3643;52.460;13.322;2024-03-23T12:50:18;4.80;99.90
7204;DHT22;3643;52.460;13.322;2024-03-23T12:52:45;4.80;99.90
7204;DHT22;3643;52.460;13.322;2024-03-23T12:55:12;4.90;99.90
7204;DHT22;3643;52.460;13.322;2024-03-23T12:57:39;5.10;99.90
7204;DHT22;3643;52.460;13.322;2024-03-23T13:00:07;5.20;99.90
7204;DHT22;3643;52.460;13.322;2024-03-23T13:02:37;5.30;99.90
7204;DHT22;3643;52.460;13.322;2024-03-23T13:05:06;5.30;99.90
7204;DHT22;3643;52.460;13.322;2024-03-23T13:07:35;5.50;99.90
7204;DHT22;3643;52.460;13.322;2024-03-23T13:10:02;5.70;99.90
7204;DHT22;3643;52.460;13.322;2024-03-23T13:12:30;6.00;99.90
7204;DHT22;3643;52.460;13.322;2024-03-23T13:14:56;6.20;99.90
7204;DHT22;3643;52.460;13.322;2024-03-23T13:17:24;6.30;99.90
7204;DHT22;3643;52.460;13.322;2024-03-23T13:19:50;6.50;99.90
7204;DHT22;3643;52.460;13.322;2024-03-23T13:22:19;6.60;99.90
7204;DHT22;3643;52.460;13.322;2024-03-23T13:24:45;7.00;99.90
7204;DHT22;3643;52.460;13.322;2024-03-23T13:27:12;7.00;99.90
7204;DHT22;3643;52.460;13.322;2024-03-23T13:29:38;7.20;99.90
7204;DHT22;3643;52.460;13.322;2024-03-23T13:32:06;6.90;99.90
7204;DHT22;3643;52.460;13.322;2024-03-23T13:34:32;6.80;99.90
7204;DHT22;3643;52.460;13.322;2024-03-23T13:37:01;6.70;99.90
7204;DHT22;3643;52.460;13.322;2024-03-23T13:39:29;6.70;99.90
7204;DHT22;3643;52.460;13.322;2024-03-23T13:41:57;6.80;99.90
7204;DHT22;3643;52.460;13.322;2024-03-23T13:44:23;6.90;99.90
7204;DHT22;3643;52.460;13.322;2024-03-23T13:46:51;6.90;99.90
7204;DHT22;3643;52.460;13.322;2024-03-23T13:49:27;7.00;99.90
7204;DHT22;3643;52.460;13.322;2024-03-23T13:51:55;7.30;99.90
7204;DHT22;3643;52.460;13.322;2024-03-23T13:54:22;7.10;99.90
7204;DHT22;3643;52.460;13.322;2024-03-23T13:56:51;6.90;99.90
7204;DHT22;3643;52.460;13.322;2024-03-23T13:59:19;6.90;99.90
7204;DHT22;3643;52.460;13.322;2024-03-23T14:01:47;6.90;99.90
7204;DHT22;3643;52.460;13.322;2024-03-23T14:04:14;6.90;99.90
7204;DHT22;3643;52.460;13.322;2024-03-23T14:06:42;7.10;99.90
7204;DHT22;3643;52.460;13.322;2024-03-23T14:09:11;7.10;99.90
7204;DHT22;3643;52.460;13.322;2024-03-23T14:11:38;7.10;99.90
7204;DHT22;3643;52.460;13.322;2024-03-23T14:14:07;7.20;99.90
7204;DHT22;3643;52.460;13.322;2024-03-23T14:16:35;7.40;99.90
7204;DHT22;3643;52.460;13.322;2024-03-23T14:19:01;7.70;99.90
7204;DHT22;3643;52.460;13.322;2024-03-23T14:21:30;7.70;99.90
7204;DHT22;3643;52.460;13.322;2024-03-23T14:23:56;7.60;99.90
7204;DHT22;3643;52.460;13.322;2024-03-23T14:26:24;7.60;99.90
7204;DHT22;3643;52.460;13.322;2024-03-23T14:28:51;7.60;99.90
7204;DHT22;3643;52.460;13.322;2024-03-23T14:31:19;7.60;99.90
7204;DHT22;3643;52.460;13.322;2024-03-23T14:33:46;7.70;99.90
7204;DHT22;3643;52.460;13.322;2024-03-23T14:36:13;7.70;99.90
7204;DHT22;3643;52.460;13.322;2024-03-23T14:38:40;7.60;99.90
7204;DHT22;3643;52.460;13.322;2024-03-23T14:41:07;7.60;99.90
7204;DHT22;3643;52.460;13.322;2024-03-23T14:43:34;7.20;99.90
7204;DHT22;3643;52.460;13.322;2024-03-23T14:46:08;7.00;99.90
7204;DHT22;3643;52.460;13.322;2024-03-23T14:48:36;6.80;99.90
7204;DHT22;3643;52.460;13.322;2024-03-23T14:51:04;6.60;99.90
7204;DHT22;3643;52.460;13.322;2024-03-23T14:53:31;6.60;99.90
7204;DHT22;3643;52.460;13.322;2024-03-23T14:55:59;6.30;99.90
7204;DHT22;3643;52.460;13.322;2024-03-23T14:58:26;6.20;99.90
7204;DHT22;3643;52.460;13.322;2024-03-23T15:01:00;6.20;99.90
7204;DHT22;3643;52.460;13.322;2024-03-23T15:03:26;6.30;99.90
7204;DHT22;3643;52.460;13.322;2024-03-23T15:05:56;6.50;99.90
7204;DHT22;3643;52.460;13.322;2024-03-23T15:08:23;6.60;99.90
7204;DHT22;3643;52.460;13.322;2024-03-23T15:10:50;6.70;99.90
7204;DHT22;3643;52.460;13.322;2024-03-23T15:13:17;6.60;99.90
7204;DHT22;3643;52.460;13.322;2024-03-23T15:15:45;6.70;99.90
7204;DHT22;3643;52.460;13.322;2024-03-23T15:18:11;6.70;99.90
7204;DHT22;3643;52.460;13.322;2024-03-23T15:21:01;6.60;99.90
7204;DHT22;3643;52.460;13.322;2024-03-23T15:23:28;6.50;99.90
7204;DHT22;3643;52.460;13.322;2024-03-23T15:25:56;6.60;99.90
7204;DHT22;3643;52.460;13.322;2024-03-23T15:28:23;6.30;99.90
7204;DHT22;3643;52.460;13.322;2024-03-23T15:30:52;6.30;99.90
7204;DHT22;3643;52.460;13.322;2024-03-23T15:33:19;6.20;99.90
7204;DHT22;3643;52.460;13.322;2024-03-23T15:35:46;6.20;99.90
7204;DHT22;3643;52.460;13.322;2024-03-23T15:38:14;6.00;99.90
7204;DHT22;3643;52.460;13.322;2024-03-23T15:40:41;6.00;99.90
7204;DHT22;3643;52.460;13.322;2024-03-23T15:43:08;6.10;99.90
7204;DHT22;3643;52.460;13.322;2024-03-23T15:45:35;6.20;99.90
7204;DHT22;3643;52.460;13.322;2024-03-23T15:48:01;6.30;99.90
7204;DHT22;3643;52.460;13.322;2024-03-23T15:50:28;6.20;99.90
7204;DHT22;3643;52.460;13.322;2024-03-23T15:52:54;6.10;99.90
7204;DHT22;3643;52.460;13.322;2024-03-23T15:55:23;6.10;99.90
7204;DHT22;3643;52.460;13.322;2024-03-23T15:57:49;6.10;99.90
7204;DHT22;3643;52.460;13.322;2024-03-23T16:00:17;6.00;99.90
7204;DHT22;3643;52.460;13.322;2024-03-23T16:02:44;5.90;99.90
7204;DHT22;3643;52.460;13.322;2024-03-23T16:05:12;5.80;99.90
7204;DHT22;3643;52.460;13.322;2024-03-23T16:07:39;5.80;99.90
7204;DHT22;3643;52.460;13.322;2024-03-23T16:10:07;5.70;99.90
7204;DHT22;3643;52.460;13.322;2024-03-23T16:12:36;5.80;99.90
7204;DHT22;3643;52.460;13.322;2024-03-23T16:15:04;5.80;99.90
7204;DHT22;3643;52.460;13.322;2024-03-23T16:17:31;5.90;99.90
7204;DHT22;3643;52.460;13.322;2024-03-23T16:20:02;5.90;99.90
7204;DHT22;3643;52.460;13.322;2024-03-23T16:22:28;5.80;99.90
7204;DHT22;3643;52.460;13.322;2024-03-23T16:24:56;5.70;99.90
7204;DHT22;3643;52.460;13.322;2024-03-23T16:27:22;5.70;99.90
7204;DHT22;3643;52.460;13.322;2024-03-23T16:29:51;5.60;99.90
7204;DHT22;3643;52.460;13.322;2024-03-23T16:32:17;5.50;99.90
7204;DHT22;3643;52.460;13.322;2024-03-23T16:34:44;5.50;99.90
7204;DHT22;3643;52.460;13.322;2024-03-23T16:37:10;5.40;99.90
7204;DHT22;3643;52.460;13.322;2024-03-23T16:39:37;5.40;99.90
7204;DHT22;3643;52.460;13.322;2024-03-23T16:42:04;5.40;99.90
7204;DHT22;3643;52.460;13.322;2024-03-23T16:44:32;5.50;99.90
7204;DHT22;3643;52.460;13.322;2024-03-23T16:46:59;5.40;99.90
7204;DHT22;3643;52.460;13.322;2024-03-23T16:49:26;5.40;99.90
7204;DHT22;3643;52.460;13.322;2024-03-23T16:51:53;5.40;99.90
7204;DHT22;3643;52.460;13.322;2024-03-23T16:54:20;5.30;99.90
7204;DHT22;3643;52.460;13.322;2024-03-23T16:56:46;5.30;99.90